עמוד ראשי
METAR-TAF:

METAR-TAF

שדות תעופה :

Sierra Blanca Regional Airport

Ruidoso, ניו מקסיקו, ארצות הברית

קו רוחב: 33-28N, קו אורך: 105-32W, גובה: 2076מטר

תצפית מזג אוויר נוכחית

הדו"ח נערך לפני 36דקות, בשעה 12:15 UTC
רוח 5קשר מכיוון מערב
טמפרטורת 15 צלסיוס
לחות 59%
לחץ 1032 hPa
ראות: 16.1קילומטר
שמיים נקיים

METAR: KSRR 251215Z AUTO 26005KT 10SM CLR 15/07 A3048 RMK AO2

זמן: 06:51 (12:51 UTC)


TAF: חסר

תצפיות ותחזיות מזג אוויר לגבי יותר מ- 4,000 שדות תעופה ברחבי העולם. דוחות METAR ו- TAF.

התחנות הזמינות מסומנות בנקודות צהובות ואדומות על גבי המפה.

העבר את העכבר לנקודה הצבעונית על מנת לראות את שם התחנה.

לאחר מכן, לחץ כדי לראות את תוכן ואת תחזיות מזג האוויר.

כדי לשנות את המפה: לחץ על הכפתורים הירוקים עם הפלוס השחור כדי להתקרב; על הכפתור הירוק עם המקף כדי להתרחק; או בחיצים הירוקים למפות סמוכות.


METAR-TAF: